sensor_id;sensor_type;location;lat;lon;timestamp;P1;durP1;ratioP1;P2;durP2;ratioP2
56830;SDS011;42713;42.676;23.352;2022-07-29T00:00:37;11.80;;;7.18;;
56830;SDS011;42713;42.676;23.352;2022-07-29T00:03:05;11.73;;;6.80;;
56830;SDS011;42713;42.676;23.352;2022-07-29T00:05:30;11.45;;;7.15;;
56830;SDS011;42713;42.676;23.352;2022-07-29T00:07:56;11.35;;;7.10;;
56830;SDS011;42713;42.676;23.352;2022-07-29T00:10:21;10.60;;;6.78;;
56830;SDS011;42713;42.676;23.352;2022-07-29T00:12:47;10.15;;;6.80;;
56830;SDS011;42713;42.676;23.352;2022-07-29T00:15:12;10.25;;;6.97;;
56830;SDS011;42713;42.676;23.352;2022-07-29T00:17:39;12.07;;;7.22;;
56830;SDS011;42713;42.676;23.352;2022-07-29T00:20:04;11.90;;;7.63;;
56830;SDS011;42713;42.676;23.352;2022-07-29T00:22:30;11.65;;;6.95;;
56830;SDS011;42713;42.676;23.352;2022-07-29T00:24:56;11.77;;;6.63;;
56830;SDS011;42713;42.676;23.352;2022-07-29T00:27:21;12.80;;;6.88;;
56830;SDS011;42713;42.676;23.352;2022-07-29T00:29:47;11.38;;;6.95;;
56830;SDS011;42713;42.676;23.352;2022-07-29T00:32:12;10.35;;;7.18;;
56830;SDS011;42713;42.676;23.352;2022-07-29T00:34:38;10.90;;;7.13;;
56830;SDS011;42713;42.676;23.352;2022-07-29T00:37:22;11.73;;;7.45;;
56830;SDS011;42713;42.676;23.352;2022-07-29T00:39:47;12.88;;;7.32;;
56830;SDS011;42713;42.676;23.352;2022-07-29T00:42:13;10.50;;;7.13;;
56830;SDS011;42713;42.676;23.352;2022-07-29T00:44:42;10.27;;;7.07;;
56830;SDS011;42713;42.676;23.352;2022-07-29T00:47:11;9.82;;;6.60;;
56830;SDS011;42713;42.676;23.352;2022-07-29T00:49:38;9.95;;;6.38;;
56830;SDS011;42713;42.676;23.352;2022-07-29T00:52:04;14.52;;;7.45;;
56830;SDS011;42713;42.676;23.352;2022-07-29T00:54:31;11.32;;;6.72;;
56830;SDS011;42713;42.676;23.352;2022-07-29T00:56:57;9.75;;;7.05;;
56830;SDS011;42713;42.676;23.352;2022-07-29T00:59:24;12.52;;;8.50;;
56830;SDS011;42713;42.676;23.352;2022-07-29T01:01:50;12.10;;;7.55;;
56830;SDS011;42713;42.676;23.352;2022-07-29T01:04:16;12.57;;;7.80;;
56830;SDS011;42713;42.676;23.352;2022-07-29T01:06:42;12.95;;;8.45;;
56830;SDS011;42713;42.676;23.352;2022-07-29T01:09:07;13.90;;;9.15;;
56830;SDS011;42713;42.676;23.352;2022-07-29T01:11:34;12.82;;;8.75;;
56830;SDS011;42713;42.676;23.352;2022-07-29T01:14:01;11.90;;;9.07;;
56830;SDS011;42713;42.676;23.352;2022-07-29T01:16:31;13.45;;;9.25;;
56830;SDS011;42713;42.676;23.352;2022-07-29T01:19:07;14.75;;;9.93;;
56830;SDS011;42713;42.676;23.352;2022-07-29T01:26:57;13.27;;;9.27;;
56830;SDS011;42713;42.676;23.352;2022-07-29T01:32:13;18.88;;;11.50;;
56830;SDS011;42713;42.676;23.352;2022-07-29T01:35:06;13.50;;;9.45;;
56830;SDS011;42713;42.676;23.352;2022-07-29T01:37:43;14.90;;;9.85;;
56830;SDS011;42713;42.676;23.352;2022-07-29T01:40:24;14.13;;;8.98;;
56830;SDS011;42713;42.676;23.352;2022-07-29T01:42:58;12.23;;;9.13;;
56830;SDS011;42713;42.676;23.352;2022-07-29T01:45:41;15.32;;;9.98;;
56830;SDS011;42713;42.676;23.352;2022-07-29T01:48:19;12.32;;;9.23;;
56830;SDS011;42713;42.676;23.352;2022-07-29T01:53:43;16.17;;;10.50;;
56830;SDS011;42713;42.676;23.352;2022-07-29T01:56:15;14.50;;;10.55;;
56830;SDS011;42713;42.676;23.352;2022-07-29T01:58:43;16.55;;;10.70;;
56830;SDS011;42713;42.676;23.352;2022-07-29T02:01:12;17.50;;;11.35;;
56830;SDS011;42713;42.676;23.352;2022-07-29T02:03:39;16.23;;;10.30;;
56830;SDS011;42713;42.676;23.352;2022-07-29T02:06:08;15.97;;;10.97;;
56830;SDS011;42713;42.676;23.352;2022-07-29T02:08:36;15.75;;;10.60;;
56830;SDS011;42713;42.676;23.352;2022-07-29T02:11:04;14.50;;;10.32;;
56830;SDS011;42713;42.676;23.352;2022-07-29T02:13:31;13.70;;;10.43;;
56830;SDS011;42713;42.676;23.352;2022-07-29T02:15:59;14.45;;;10.57;;
56830;SDS011;42713;42.676;23.352;2022-07-29T02:18:28;19.65;;;11.52;;
56830;SDS011;42713;42.676;23.352;2022-07-29T02:20:55;16.25;;;11.05;;
56830;SDS011;42713;42.676;23.352;2022-07-29T02:23:23;13.75;;;10.15;;
56830;SDS011;42713;42.676;23.352;2022-07-29T02:25:55;16.85;;;9.85;;
56830;SDS011;42713;42.676;23.352;2022-07-29T02:28:22;15.05;;;10.32;;
56830;SDS011;42713;42.676;23.352;2022-07-29T02:30:49;14.88;;;10.10;;
56830;SDS011;42713;42.676;23.352;2022-07-29T02:33:17;14.38;;;9.68;;
56830;SDS011;42713;42.676;23.352;2022-07-29T02:35:45;13.10;;;9.80;;
56830;SDS011;42713;42.676;23.352;2022-07-29T02:38:13;17.08;;;10.15;;
56830;SDS011;42713;42.676;23.352;2022-07-29T02:40:59;14.60;;;10.02;;
56830;SDS011;42713;42.676;23.352;2022-07-29T02:43:31;13.95;;;9.73;;
56830;SDS011;42713;42.676;23.352;2022-07-29T02:45:58;16.38;;;9.80;;
56830;SDS011;42713;42.676;23.352;2022-07-29T02:48:29;14.45;;;9.82;;
56830;SDS011;42713;42.676;23.352;2022-07-29T02:51:07;14.85;;;9.88;;
56830;SDS011;42713;42.676;23.352;2022-07-29T02:53:37;15.13;;;8.73;;
56830;SDS011;42713;42.676;23.352;2022-07-29T02:56:08;13.70;;;10.05;;
56830;SDS011;42713;42.676;23.352;2022-07-29T02:58:39;11.75;;;8.60;;
56830;SDS011;42713;42.676;23.352;2022-07-29T03:01:13;18.25;;;9.20;;
56830;SDS011;42713;42.676;23.352;2022-07-29T03:03:42;15.85;;;9.77;;
56830;SDS011;42713;42.676;23.352;2022-07-29T03:06:12;13.23;;;9.43;;
56830;SDS011;42713;42.676;23.352;2022-07-29T03:08:40;12.82;;;8.27;;
56830;SDS011;42713;42.676;23.352;2022-07-29T03:11:07;12.90;;;8.63;;
56830;SDS011;42713;42.676;23.352;2022-07-29T03:13:34;15.82;;;8.60;;
56830;SDS011;42713;42.676;23.352;2022-07-29T03:16:00;17.80;;;8.65;;
56830;SDS011;42713;42.676;23.352;2022-07-29T03:18:27;12.88;;;8.23;;
56830;SDS011;42713;42.676;23.352;2022-07-29T03:20:53;17.95;;;9.48;;
56830;SDS011;42713;42.676;23.352;2022-07-29T03:23:19;14.73;;;9.63;;
56830;SDS011;42713;42.676;23.352;2022-07-29T03:25:47;17.58;;;10.38;;
56830;SDS011;42713;42.676;23.352;2022-07-29T03:28:13;14.68;;;9.25;;
56830;SDS011;42713;42.676;23.352;2022-07-29T03:30:39;13.35;;;8.63;;
56830;SDS011;42713;42.676;23.352;2022-07-29T03:33:04;15.93;;;9.63;;
56830;SDS011;42713;42.676;23.352;2022-07-29T03:35:29;14.05;;;9.98;;
56830;SDS011;42713;42.676;23.352;2022-07-29T03:37:56;14.30;;;9.30;;
56830;SDS011;42713;42.676;23.352;2022-07-29T03:40:23;15.25;;;9.57;;
56830;SDS011;42713;42.676;23.352;2022-07-29T03:42:59;14.77;;;10.23;;
56830;SDS011;42713;42.676;23.352;2022-07-29T03:45:27;18.17;;;10.82;;
56830;SDS011;42713;42.676;23.352;2022-07-29T03:47:57;16.55;;;12.35;;
56830;SDS011;42713;42.676;23.352;2022-07-29T03:50:26;15.48;;;11.55;;
56830;SDS011;42713;42.676;23.352;2022-07-29T03:52:53;15.88;;;10.98;;
56830;SDS011;42713;42.676;23.352;2022-07-29T03:55:19;15.93;;;10.65;;
56830;SDS011;42713;42.676;23.352;2022-07-29T03:57:45;20.70;;;12.82;;
56830;SDS011;42713;42.676;23.352;2022-07-29T04:00:12;17.95;;;11.57;;
56830;SDS011;42713;42.676;23.352;2022-07-29T04:02:40;19.27;;;13.57;;
56830;SDS011;42713;42.676;23.352;2022-07-29T04:05:12;18.45;;;11.48;;
56830;SDS011;42713;42.676;23.352;2022-07-29T04:07:38;17.42;;;10.60;;
56830;SDS011;42713;42.676;23.352;2022-07-29T04:10:03;15.80;;;9.73;;
56830;SDS011;42713;42.676;23.352;2022-07-29T04:12:29;15.57;;;10.32;;
56830;SDS011;42713;42.676;23.352;2022-07-29T04:14:55;18.48;;;10.95;;
56830;SDS011;42713;42.676;23.352;2022-07-29T04:17:22;14.88;;;9.50;;
56830;SDS011;42713;42.676;23.352;2022-07-29T04:19:47;17.65;;;10.68;;
56830;SDS011;42713;42.676;23.352;2022-07-29T04:22:13;14.57;;;10.88;;
56830;SDS011;42713;42.676;23.352;2022-07-29T04:24:38;23.42;;;11.48;;
56830;SDS011;42713;42.676;23.352;2022-07-29T04:27:03;15.02;;;11.57;;
56830;SDS011;42713;42.676;23.352;2022-07-29T04:29:29;17.75;;;12.15;;
56830;SDS011;42713;42.676;23.352;2022-07-29T04:31:54;17.60;;;9.90;;
56830;SDS011;42713;42.676;23.352;2022-07-29T04:34:20;18.55;;;10.20;;
56830;SDS011;42713;42.676;23.352;2022-07-29T04:36:45;15.70;;;10.00;;
56830;SDS011;42713;42.676;23.352;2022-07-29T04:39:11;17.75;;;9.88;;
56830;SDS011;42713;42.676;23.352;2022-07-29T04:41:36;13.75;;;9.70;;
56830;SDS011;42713;42.676;23.352;2022-07-29T04:44:02;15.95;;;8.73;;
56830;SDS011;42713;42.676;23.352;2022-07-29T04:46:30;14.68;;;8.73;;
56830;SDS011;42713;42.676;23.352;2022-07-29T04:48:56;14.70;;;8.23;;
56830;SDS011;42713;42.676;23.352;2022-07-29T04:51:21;16.75;;;11.30;;
56830;SDS011;42713;42.676;23.352;2022-07-29T04:53:47;16.30;;;9.32;;
56830;SDS011;42713;42.676;23.352;2022-07-29T04:56:12;14.70;;;8.82;;
56830;SDS011;42713;42.676;23.352;2022-07-29T04:58:38;13.65;;;9.23;;
56830;SDS011;42713;42.676;23.352;2022-07-29T05:01:04;15.85;;;9.32;;
56830;SDS011;42713;42.676;23.352;2022-07-29T05:03:30;11.52;;;7.40;;
56830;SDS011;42713;42.676;23.352;2022-07-29T05:05:55;11.35;;;7.40;;
56830;SDS011;42713;42.676;23.352;2022-07-29T05:08:21;11.23;;;7.20;;
56830;SDS011;42713;42.676;23.352;2022-07-29T05:10:47;12.80;;;7.70;;
56830;SDS011;42713;42.676;23.352;2022-07-29T05:13:12;20.23;;;7.43;;
56830;SDS011;42713;42.676;23.352;2022-07-29T05:15:38;11.88;;;6.65;;
56830;SDS011;42713;42.676;23.352;2022-07-29T05:18:04;12.70;;;6.95;;
56830;SDS011;42713;42.676;23.352;2022-07-29T05:20:30;11.13;;;6.75;;
56830;SDS011;42713;42.676;23.352;2022-07-29T05:22:57;14.05;;;6.97;;
56830;SDS011;42713;42.676;23.352;2022-07-29T05:25:23;11.73;;;6.57;;
56830;SDS011;42713;42.676;23.352;2022-07-29T05:27:50;12.20;;;6.45;;
56830;SDS011;42713;42.676;23.352;2022-07-29T05:30:15;10.45;;;6.43;;
56830;SDS011;42713;42.676;23.352;2022-07-29T05:32:41;12.85;;;6.72;;
56830;SDS011;42713;42.676;23.352;2022-07-29T05:35:06;11.02;;;6.25;;
56830;SDS011;42713;42.676;23.352;2022-07-29T05:37:33;43.38;;;7.88;;
56830;SDS011;42713;42.676;23.352;2022-07-29T05:39:58;15.88;;;6.18;;
56830;SDS011;42713;42.676;23.352;2022-07-29T05:42:24;18.33;;;6.40;;
56830;SDS011;42713;42.676;23.352;2022-07-29T05:44:50;13.27;;;6.50;;
56830;SDS011;42713;42.676;23.352;2022-07-29T05:47:16;16.95;;;6.78;;
56830;SDS011;42713;42.676;23.352;2022-07-29T05:49:41;11.27;;;7.28;;
56830;SDS011;42713;42.676;23.352;2022-07-29T05:52:07;12.63;;;6.70;;
56830;SDS011;42713;42.676;23.352;2022-07-29T05:54:33;11.57;;;6.93;;
56830;SDS011;42713;42.676;23.352;2022-07-29T05:56:59;23.27;;;7.07;;
56830;SDS011;42713;42.676;23.352;2022-07-29T05:59:24;12.75;;;6.40;;
56830;SDS011;42713;42.676;23.352;2022-07-29T06:01:50;12.05;;;5.40;;
56830;SDS011;42713;42.676;23.352;2022-07-29T06:04:15;14.35;;;6.68;;
56830;SDS011;42713;42.676;23.352;2022-07-29T06:06:41;14.38;;;8.10;;
56830;SDS011;42713;42.676;23.352;2022-07-29T06:09:06;9.85;;;5.40;;
56830;SDS011;42713;42.676;23.352;2022-07-29T06:11:32;11.57;;;5.57;;
56830;SDS011;42713;42.676;23.352;2022-07-29T06:13:58;19.73;;;6.63;;
56830;SDS011;42713;42.676;23.352;2022-07-29T06:16:23;11.02;;;5.35;;
56830;SDS011;42713;42.676;23.352;2022-07-29T06:18:49;11.52;;;5.90;;
56830;SDS011;42713;42.676;23.352;2022-07-29T06:21:14;14.85;;;6.38;;
56830;SDS011;42713;42.676;23.352;2022-07-29T06:23:39;11.95;;;6.22;;
56830;SDS011;42713;42.676;23.352;2022-07-29T06:26:05;11.27;;;6.15;;
56830;SDS011;42713;42.676;23.352;2022-07-29T06:28:31;11.32;;;5.40;;
56830;SDS011;42713;42.676;23.352;2022-07-29T06:30:57;9.73;;;5.32;;
56830;SDS011;42713;42.676;23.352;2022-07-29T06:33:23;10.38;;;5.68;;
56830;SDS011;42713;42.676;23.352;2022-07-29T06:35:48;10.38;;;5.25;;
56830;SDS011;42713;42.676;23.352;2022-07-29T06:38:14;12.95;;;5.53;;
56830;SDS011;42713;42.676;23.352;2022-07-29T06:40:41;9.48;;;5.25;;
56830;SDS011;42713;42.676;23.352;2022-07-29T06:46:06;10.88;;;5.43;;
56830;SDS011;42713;42.676;23.352;2022-07-29T06:48:34;9.45;;;4.65;;
56830;SDS011;42713;42.676;23.352;2022-07-29T06:51:01;10.10;;;5.00;;
56830;SDS011;42713;42.676;23.352;2022-07-29T06:53:28;11.23;;;5.25;;
56830;SDS011;42713;42.676;23.352;2022-07-29T06:55:53;11.93;;;5.22;;
56830;SDS011;42713;42.676;23.352;2022-07-29T06:58:19;16.48;;;5.85;;
56830;SDS011;42713;42.676;23.352;2022-07-29T07:00:48;11.90;;;5.60;;
56830;SDS011;42713;42.676;23.352;2022-07-29T07:03:14;12.60;;;5.03;;
56830;SDS011;42713;42.676;23.352;2022-07-29T07:05:44;10.90;;;5.18;;
56830;SDS011;42713;42.676;23.352;2022-07-29T07:08:10;19.52;;;5.15;;
56830;SDS011;42713;42.676;23.352;2022-07-29T07:10:36;9.05;;;4.85;;
56830;SDS011;42713;42.676;23.352;2022-07-29T07:13:02;10.95;;;4.57;;
56830;SDS011;42713;42.676;23.352;2022-07-29T07:15:28;12.13;;;4.78;;
56830;SDS011;42713;42.676;23.352;2022-07-29T07:17:53;12.35;;;5.22;;
56830;SDS011;42713;42.676;23.352;2022-07-29T07:20:19;9.10;;;4.55;;
56830;SDS011;42713;42.676;23.352;2022-07-29T07:22:45;11.40;;;4.47;;
56830;SDS011;42713;42.676;23.352;2022-07-29T07:25:12;9.90;;;4.15;;
56830;SDS011;42713;42.676;23.352;2022-07-29T07:27:38;12.20;;;4.40;;
56830;SDS011;42713;42.676;23.352;2022-07-29T07:30:04;10.88;;;4.32;;
56830;SDS011;42713;42.676;23.352;2022-07-29T07:32:33;9.48;;;4.13;;
56830;SDS011;42713;42.676;23.352;2022-07-29T07:34:59;11.68;;;3.92;;
56830;SDS011;42713;42.676;23.352;2022-07-29T07:37:25;9.50;;;3.83;;
56830;SDS011;42713;42.676;23.352;2022-07-29T07:39:51;9.93;;;4.10;;
56830;SDS011;42713;42.676;23.352;2022-07-29T07:42:18;10.05;;;4.10;;
56830;SDS011;42713;42.676;23.352;2022-07-29T07:44:44;8.63;;;3.50;;
56830;SDS011;42713;42.676;23.352;2022-07-29T07:47:11;11.27;;;3.90;;
56830;SDS011;42713;42.676;23.352;2022-07-29T07:49:44;8.45;;;3.83;;
56830;SDS011;42713;42.676;23.352;2022-07-29T07:52:13;8.27;;;3.80;;
56830;SDS011;42713;42.676;23.352;2022-07-29T07:54:43;8.32;;;3.85;;
56830;SDS011;42713;42.676;23.352;2022-07-29T07:57:13;9.63;;;3.72;;
56830;SDS011;42713;42.676;23.352;2022-07-29T07:59:40;16.23;;;3.72;;
56830;SDS011;42713;42.676;23.352;2022-07-29T08:02:06;8.88;;;3.60;;
56830;SDS011;42713;42.676;23.352;2022-07-29T08:04:32;8.50;;;3.67;;
56830;SDS011;42713;42.676;23.352;2022-07-29T08:09:48;10.88;;;3.88;;
56830;SDS011;42713;42.676;23.352;2022-07-29T08:20:31;6.75;;;3.17;;
56830;SDS011;42713;42.676;23.352;2022-07-29T08:23:18;8.23;;;3.67;;
56830;SDS011;42713;42.676;23.352;2022-07-29T08:26:38;7.50;;;3.80;;
56830;SDS011;42713;42.676;23.352;2022-07-29T08:34:12;12.67;;;3.47;;
56830;SDS011;42713;42.676;23.352;2022-07-29T08:40:27;6.55;;;2.90;;
56830;SDS011;42713;42.676;23.352;2022-07-29T08:45:44;6.63;;;3.15;;
56830;SDS011;42713;42.676;23.352;2022-07-29T08:48:15;7.07;;;2.85;;
56830;SDS011;42713;42.676;23.352;2022-07-29T08:50:42;9.98;;;3.38;;
56830;SDS011;42713;42.676;23.352;2022-07-29T08:53:12;9.25;;;3.10;;
56830;SDS011;42713;42.676;23.352;2022-07-29T08:55:48;6.88;;;3.17;;
56830;SDS011;42713;42.676;23.352;2022-07-29T08:58:14;7.40;;;3.10;;
56830;SDS011;42713;42.676;23.352;2022-07-29T09:00:42;6.65;;;2.72;;
56830;SDS011;42713;42.676;23.352;2022-07-29T09:03:09;7.20;;;3.30;;
56830;SDS011;42713;42.676;23.352;2022-07-29T09:05:41;6.93;;;3.00;;
56830;SDS011;42713;42.676;23.352;2022-07-29T09:08:07;6.65;;;3.00;;
56830;SDS011;42713;42.676;23.352;2022-07-29T09:10:34;5.55;;;2.85;;
56830;SDS011;42713;42.676;23.352;2022-07-29T09:13:00;7.70;;;3.20;;
56830;SDS011;42713;42.676;23.352;2022-07-29T09:15:26;9.23;;;2.90;;
56830;SDS011;42713;42.676;23.352;2022-07-29T09:17:51;10.45;;;2.80;;
56830;SDS011;42713;42.676;23.352;2022-07-29T09:20:18;7.57;;;2.80;;
56830;SDS011;42713;42.676;23.352;2022-07-29T09:22:46;9.25;;;3.08;;
56830;SDS011;42713;42.676;23.352;2022-07-29T09:25:36;8.98;;;3.72;;
56830;SDS011;42713;42.676;23.352;2022-07-29T09:28:07;7.57;;;3.47;;
56830;SDS011;42713;42.676;23.352;2022-07-29T09:30:35;7.30;;;3.22;;
56830;SDS011;42713;42.676;23.352;2022-07-29T09:33:14;6.53;;;2.85;;
56830;SDS011;42713;42.676;23.352;2022-07-29T09:35:40;8.13;;;3.40;;
56830;SDS011;42713;42.676;23.352;2022-07-29T09:38:15;10.65;;;3.50;;
56830;SDS011;42713;42.676;23.352;2022-07-29T09:40:40;7.72;;;3.22;;
56830;SDS011;42713;42.676;23.352;2022-07-29T09:43:10;7.03;;;3.42;;
56830;SDS011;42713;42.676;23.352;2022-07-29T09:45:36;7.32;;;3.17;;
56830;SDS011;42713;42.676;23.352;2022-07-29T09:53:09;9.13;;;3.03;;
56830;SDS011;42713;42.676;23.352;2022-07-29T09:55:51;5.95;;;2.75;;
56830;SDS011;42713;42.676;23.352;2022-07-29T09:58:17;11.15;;;3.15;;
56830;SDS011;42713;42.676;23.352;2022-07-29T10:00:44;8.32;;;2.83;;
56830;SDS011;42713;42.676;23.352;2022-07-29T10:03:11;10.35;;;3.40;;
56830;SDS011;42713;42.676;23.352;2022-07-29T10:05:37;5.75;;;3.08;;
56830;SDS011;42713;42.676;23.352;2022-07-29T10:08:04;6.82;;;3.13;;
56830;SDS011;42713;42.676;23.352;2022-07-29T10:10:31;12.32;;;3.67;;
56830;SDS011;42713;42.676;23.352;2022-07-29T10:15:36;9.50;;;3.00;;
56830;SDS011;42713;42.676;23.352;2022-07-29T10:18:05;11.20;;;3.13;;
56830;SDS011;42713;42.676;23.352;2022-07-29T10:20:32;9.63;;;3.03;;
56830;SDS011;42713;42.676;23.352;2022-07-29T10:22:58;10.32;;;2.90;;
56830;SDS011;42713;42.676;23.352;2022-07-29T10:25:23;7.35;;;2.97;;
56830;SDS011;42713;42.676;23.352;2022-07-29T10:27:50;7.45;;;3.55;;
56830;SDS011;42713;42.676;23.352;2022-07-29T10:30:17;7.57;;;3.28;;
56830;SDS011;42713;42.676;23.352;2022-07-29T10:35:38;8.77;;;3.13;;
56830;SDS011;42713;42.676;23.352;2022-07-29T10:41:08;6.15;;;2.90;;
56830;SDS011;42713;42.676;23.352;2022-07-29T10:44:20;8.68;;;2.55;;
56830;SDS011;42713;42.676;23.352;2022-07-29T10:46:47;6.10;;;2.78;;
56830;SDS011;42713;42.676;23.352;2022-07-29T10:51:53;6.68;;;2.33;;
56830;SDS011;42713;42.676;23.352;2022-07-29T11:05:04;7.13;;;3.15;;
56830;SDS011;42713;42.676;23.352;2022-07-29T11:10:40;7.20;;;2.47;;
56830;SDS011;42713;42.676;23.352;2022-07-29T11:13:05;6.25;;;2.90;;
56830;SDS011;42713;42.676;23.352;2022-07-29T11:15:51;8.05;;;2.97;;
56830;SDS011;42713;42.676;23.352;2022-07-29T11:18:17;8.32;;;3.00;;
56830;SDS011;42713;42.676;23.352;2022-07-29T11:20:46;8.15;;;2.72;;
56830;SDS011;42713;42.676;23.352;2022-07-29T11:23:31;7.88;;;3.58;;
56830;SDS011;42713;42.676;23.352;2022-07-29T11:31:51;7.78;;;3.72;;
56830;SDS011;42713;42.676;23.352;2022-07-29T11:39:31;8.15;;;3.72;;
56830;SDS011;42713;42.676;23.352;2022-07-29T11:44:57;8.02;;;3.17;;
56830;SDS011;42713;42.676;23.352;2022-07-29T11:47:34;6.95;;;3.28;;
56830;SDS011;42713;42.676;23.352;2022-07-29T11:50:06;7.85;;;3.17;;
56830;SDS011;42713;42.676;23.352;2022-07-29T11:52:44;5.90;;;3.08;;
56830;SDS011;42713;42.676;23.352;2022-07-29T11:55:20;7.30;;;2.95;;
56830;SDS011;42713;42.676;23.352;2022-07-29T11:57:49;9.07;;;3.30;;
56830;SDS011;42713;42.676;23.352;2022-07-29T12:02:58;9.30;;;3.38;;
56830;SDS011;42713;42.676;23.352;2022-07-29T12:05:31;7.05;;;3.20;;
56830;SDS011;42713;42.676;23.352;2022-07-29T12:08:08;8.18;;;3.10;;
56830;SDS011;42713;42.676;23.352;2022-07-29T12:10:39;8.18;;;3.35;;
56830;SDS011;42713;42.676;23.352;2022-07-29T12:13:06;7.47;;;2.97;;
56830;SDS011;42713;42.676;23.352;2022-07-29T12:15:32;7.43;;;3.53;;
56830;SDS011;42713;42.676;23.352;2022-07-29T12:17:58;6.35;;;3.58;;
56830;SDS011;42713;42.676;23.352;2022-07-29T12:20:29;6.25;;;3.17;;
56830;SDS011;42713;42.676;23.352;2022-07-29T12:22:55;10.50;;;3.50;;
56830;SDS011;42713;42.676;23.352;2022-07-29T12:25:22;7.57;;;3.40;;
56830;SDS011;42713;42.676;23.352;2022-07-29T12:28:01;7.43;;;3.47;;
56830;SDS011;42713;42.676;23.352;2022-07-29T12:33:00;8.38;;;3.30;;
56830;SDS011;42713;42.676;23.352;2022-07-29T12:35:26;7.63;;;3.60;;
56830;SDS011;42713;42.676;23.352;2022-07-29T12:37:52;7.00;;;3.38;;
56830;SDS011;42713;42.676;23.352;2022-07-29T12:40:18;7.35;;;3.80;;
56830;SDS011;42713;42.676;23.352;2022-07-29T12:45:54;9.13;;;3.80;;
56830;SDS011;42713;42.676;23.352;2022-07-29T12:48:33;10.52;;;4.30;;
56830;SDS011;42713;42.676;23.352;2022-07-29T12:50:59;8.88;;;4.07;;
56830;SDS011;42713;42.676;23.352;2022-07-29T12:53:27;7.32;;;3.80;;
56830;SDS011;42713;42.676;23.352;2022-07-29T12:55:53;8.00;;;3.90;;
56830;SDS011;42713;42.676;23.352;2022-07-29T12:58:34;7.90;;;3.80;;
56830;SDS011;42713;42.676;23.352;2022-07-29T13:01:02;8.32;;;3.60;;
56830;SDS011;42713;42.676;23.352;2022-07-29T13:03:28;7.68;;;3.65;;
56830;SDS011;42713;42.676;23.352;2022-07-29T13:05:54;9.13;;;4.25;;
56830;SDS011;42713;42.676;23.352;2022-07-29T13:08:19;10.60;;;3.97;;
56830;SDS011;42713;42.676;23.352;2022-07-29T13:10:45;7.18;;;4.00;;
56830;SDS011;42713;42.676;23.352;2022-07-29T13:13:12;9.35;;;4.00;;
56830;SDS011;42713;42.676;23.352;2022-07-29T13:15:40;8.65;;;3.60;;
56830;SDS011;42713;42.676;23.352;2022-07-29T13:20:57;6.95;;;3.67;;
56830;SDS011;42713;42.676;23.352;2022-07-29T13:23:36;8.13;;;3.67;;
56830;SDS011;42713;42.676;23.352;2022-07-29T13:26:05;6.45;;;3.80;;
56830;SDS011;42713;42.676;23.352;2022-07-29T13:28:34;7.32;;;3.50;;
56830;SDS011;42713;42.676;23.352;2022-07-29T13:31:00;7.13;;;3.88;;
56830;SDS011;42713;42.676;23.352;2022-07-29T13:33:26;8.35;;;3.70;;
56830;SDS011;42713;42.676;23.352;2022-07-29T13:35:52;10.13;;;5.10;;
56830;SDS011;42713;42.676;23.352;2022-07-29T13:38:17;8.18;;;4.72;;
56830;SDS011;42713;42.676;23.352;2022-07-29T13:40:43;9.75;;;4.13;;
56830;SDS011;42713;42.676;23.352;2022-07-29T13:43:09;7.47;;;3.67;;
56830;SDS011;42713;42.676;23.352;2022-07-29T13:45:35;7.00;;;3.92;;
56830;SDS011;42713;42.676;23.352;2022-07-29T13:48:00;9.75;;;4.70;;
56830;SDS011;42713;42.676;23.352;2022-07-29T13:50:26;8.48;;;4.90;;
56830;SDS011;42713;42.676;23.352;2022-07-29T13:52:53;8.05;;;4.15;;
56830;SDS011;42713;42.676;23.352;2022-07-29T13:55:18;7.05;;;3.70;;
56830;SDS011;42713;42.676;23.352;2022-07-29T13:57:44;7.60;;;3.75;;
56830;SDS011;42713;42.676;23.352;2022-07-29T14:00:10;8.18;;;4.60;;
56830;SDS011;42713;42.676;23.352;2022-07-29T14:02:37;8.43;;;4.55;;
56830;SDS011;42713;42.676;23.352;2022-07-29T14:05:03;6.60;;;3.65;;
56830;SDS011;42713;42.676;23.352;2022-07-29T14:07:30;9.20;;;3.70;;
56830;SDS011;42713;42.676;23.352;2022-07-29T14:09:55;7.53;;;3.70;;
56830;SDS011;42713;42.676;23.352;2022-07-29T14:12:21;9.98;;;3.67;;
56830;SDS011;42713;42.676;23.352;2022-07-29T14:14:47;6.20;;;3.70;;
56830;SDS011;42713;42.676;23.352;2022-07-29T14:20:05;9.23;;;3.80;;
56830;SDS011;42713;42.676;23.352;2022-07-29T14:22:30;6.97;;;3.72;;
56830;SDS011;42713;42.676;23.352;2022-07-29T14:24:56;11.48;;;3.67;;
56830;SDS011;42713;42.676;23.352;2022-07-29T14:27:21;7.20;;;3.22;;
56830;SDS011;42713;42.676;23.352;2022-07-29T14:29:47;6.57;;;3.20;;
56830;SDS011;42713;42.676;23.352;2022-07-29T14:32:12;6.72;;;3.30;;
56830;SDS011;42713;42.676;23.352;2022-07-29T14:34:39;9.85;;;3.65;;
56830;SDS011;42713;42.676;23.352;2022-07-29T14:37:05;7.00;;;3.40;;
56830;SDS011;42713;42.676;23.352;2022-07-29T14:39:31;8.38;;;3.67;;
56830;SDS011;42713;42.676;23.352;2022-07-29T14:41:57;12.02;;;3.60;;
56830;SDS011;42713;42.676;23.352;2022-07-29T14:44:23;7.93;;;3.47;;
56830;SDS011;42713;42.676;23.352;2022-07-29T14:46:49;6.35;;;3.30;;
56830;SDS011;42713;42.676;23.352;2022-07-29T14:49:14;7.40;;;3.42;;
56830;SDS011;42713;42.676;23.352;2022-07-29T14:51:40;7.60;;;3.05;;
56830;SDS011;42713;42.676;23.352;2022-07-29T14:54:05;6.90;;;3.20;;
56830;SDS011;42713;42.676;23.352;2022-07-29T14:56:31;8.15;;;3.40;;
56830;SDS011;42713;42.676;23.352;2022-07-29T14:58:57;7.88;;;3.35;;
56830;SDS011;42713;42.676;23.352;2022-07-29T15:01:23;6.65;;;3.55;;
56830;SDS011;42713;42.676;23.352;2022-07-29T15:03:49;8.00;;;3.30;;
56830;SDS011;42713;42.676;23.352;2022-07-29T15:06:15;7.85;;;3.70;;
56830;SDS011;42713;42.676;23.352;2022-07-29T15:08:41;8.60;;;4.78;;
56830;SDS011;42713;42.676;23.352;2022-07-29T15:11:06;6.93;;;3.45;;
56830;SDS011;42713;42.676;23.352;2022-07-29T15:13:33;7.97;;;3.88;;
56830;SDS011;42713;42.676;23.352;2022-07-29T15:15:59;9.73;;;4.10;;
56830;SDS011;42713;42.676;23.352;2022-07-29T15:18:24;8.25;;;3.40;;
56830;SDS011;42713;42.676;23.352;2022-07-29T15:20:50;5.95;;;3.53;;
56830;SDS011;42713;42.676;23.352;2022-07-29T15:23:15;7.43;;;3.65;;
56830;SDS011;42713;42.676;23.352;2022-07-29T15:25:41;7.15;;;3.50;;
56830;SDS011;42713;42.676;23.352;2022-07-29T15:28:06;7.55;;;4.15;;
56830;SDS011;42713;42.676;23.352;2022-07-29T15:30:32;9.50;;;3.80;;
56830;SDS011;42713;42.676;23.352;2022-07-29T15:33:01;7.82;;;3.30;;
56830;SDS011;42713;42.676;23.352;2022-07-29T15:35:27;8.60;;;3.75;;
56830;SDS011;42713;42.676;23.352;2022-07-29T15:37:53;7.80;;;3.72;;
56830;SDS011;42713;42.676;23.352;2022-07-29T15:40:18;6.28;;;3.60;;
56830;SDS011;42713;42.676;23.352;2022-07-29T15:42:44;7.95;;;3.38;;
56830;SDS011;42713;42.676;23.352;2022-07-29T15:45:10;8.45;;;3.80;;
56830;SDS011;42713;42.676;23.352;2022-07-29T15:47:35;7.93;;;3.42;;
56830;SDS011;42713;42.676;23.352;2022-07-29T15:50:02;8.00;;;3.70;;
56830;SDS011;42713;42.676;23.352;2022-07-29T15:52:28;8.30;;;4.15;;
56830;SDS011;42713;42.676;23.352;2022-07-29T15:54:54;5.90;;;3.42;;
56830;SDS011;42713;42.676;23.352;2022-07-29T15:57:21;6.78;;;3.53;;
56830;SDS011;42713;42.676;23.352;2022-07-29T15:59:47;6.60;;;3.60;;
56830;SDS011;42713;42.676;23.352;2022-07-29T16:02:12;7.65;;;3.50;;
56830;SDS011;42713;42.676;23.352;2022-07-29T16:04:38;10.55;;;3.60;;